Terminal Aerodrome Forecast
Issued by NWS

Home | Current Version | Previous Version | Text Only | Print | Product List | Glossary On
Versions: 1 2 3 4 5 6 7 8 9 10 11 12
000
FTUS44 KOUN 241133
TAFPNC
TAF
KPNC 241133Z 2412/2512 17008KT P6SM SCT150 BKN250
     FM241600 21011KT P6SM FEW150 SCT250
     FM250100 13006KT P6SM SCT120 BKN250=

USA.gov is the U.S. government's official web portal to all federal, state and local government web resources and services.